East Hampton, New York
Current Conditions -  °F | °C
As of 4:53 AM on Friday 28 Nov 2014 (Local Time) from KFOK Reporting Station
Scattered Clouds Scattered Clouds  
Wind Chill: 24°   Ceiling: Unl
Heat Index: 33°   Visibility: 10mi
Dew Point: 23°   Wind: 12mph
Humidity: 66%   Direction: 310°NW
Pressure: 30.05"   Gusts: NA
Location:  40.96°N, 72.18°W
Report Text: KFOK 280953Z AUTO 31010KT 10SM SCT030 01/M05 A3005 RMK AO2 SLP175 T00061050 TSNO
Loading
Personal Weather Stations






























Interactive Weather Map New forecast layout! Learn more

10-Day Weather Forecast

Advertisements
Track Severe Weather on mobile